Sant Hilari Sacalm





Hora UTC 05:30
Temperatura 12.5 ºC
Humitat 93.5 %
Pressió 1017.1 hPa
Pluja 0.0 mm
Velocitat vent 2.8 km/h
Direcció vent WNW
Radiació solar 104.4 W/m²

Dades diàries 2020-05-30



Hora UTC (hivern +1h; estiu +2h)
Temperatura (ºC) Humitat (%) Pressió (hPa) Velocitat vent (km/h) Precipitació (mm) Radiació solar (W/m²)
Hora UTC Aire Humitat Pressió Vel. Dir. Vel. Max Dir. Intent. màx 5 min. Rad. Sol.
00:05 11.9 93.1 1017.5 3.8 NW 3.8 WNW 0.0 0.1
00:10 11.9 94.0 1017.5 1.2 NNW 8.8 NNW 0.0 0.1
00:15 11.9 94.7 1017.5 0.9 NNW 6.1 NNW 0.0 0.1
00:20 11.9 95.1 1017.5 2.0 N 6.1 N 0.0 0.1
00:25 11.8 95.7 1017.5 0.4 NNE 6.1 NNE 0.0 0.1
00:30 11.8 96.1 1017.5 0.0 NNE 0.0 NNE 0.0 0.1
00:35 11.7 96.2 1017.5 0.1 NNW 3.4 NNW 0.0 0.1
00:40 11.7 96.5 1017.5 0.8 NNW 6.1 NNW 0.0 0.1
00:45 11.7 96.9 1017.4 0.1 NE 6.1 NNE 0.0 0.1
00:50 11.9 97.5 1017.4 1.0 NNE 6.1 NNE 0.0 0.1
00:55 12.0 97.5 1017.3 0.1 NE 3.4 NNE 0.0 0.1
01:00 11.9 97.5 1017.3 1.1 W 6.1 WSW 0.0 0.1
01:05 11.9 97.5 1017.3 1.4 WSW 6.1 WSW 0.0 0.1
01:10 11.9 97.6 1017.2 4.7 WNW 8.8 WNW 0.0 0.1
01:15 11.9 97.7 1017.3 5.4 WNW 11.5 WNW 0.0 0.1
01:20 12.0 97.8 1017.2 3.9 WNW 11.5 WNW 0.0 0.1
01:25 12.0 97.8 1017.3 1.2 WNW 8.8 NW 0.0 0.1
01:30 12.0 97.9 1017.3 0.2 NNE 3.4 N 0.0 0.1
01:35 12.0 97.6 1017.3 3.2 NNE 6.1 NNE 0.0 0.1
01:40 11.8 97.7 1017.3 4.3 NE 6.1 NNE 0.0 0.1
01:45 12.1 98.1 1017.4 2.8 ENE 6.1 E 0.0 0.1
01:50 12.2 98.0 1017.4 0.8 ENE 6.1 ENE 0.0 0.1
01:55 12.3 97.9 1017.4 0.0 NNW 3.4 NNW 0.0 0.1
02:00 12.3 97.8 1017.4 0.0 NNE 0.0 NNW 0.0 0.1
02:05 12.3 97.8 1017.4 0.6 SSW 3.4 S 0.0 0.1
02:10 12.4 97.8 1017.4 0.2 WSW 3.4 S 0.0 0.1
02:15 12.4 97.7 1017.5 3.0 W 6.1 W 0.0 0.1
02:20 12.5 97.5 1017.5 0.5 W 6.1 W 0.0 0.1
02:25 12.5 97.6 1017.4 0.0 NNE 0.0 WNW 0.0 0.1
02:30 12.6 97.6 1017.4 0.0 SW 3.4 SW 0.0 0.1
02:35 12.7 97.2 1017.4 1.2 E 8.8 NE 0.0 0.1
02:40 12.7 96.8 1017.3 0.2 WNW 3.4 WNW 0.0 0.1
02:45 12.7 96.6 1017.3 2.1 WNW 6.1 WNW 0.0 0.1
02:50 12.7 96.5 1017.3 1.5 WNW 6.1 WNW 0.0 0.1
02:55 12.8 96.5 1017.3 1.7 WNW 6.1 WNW 0.0 0.1
03:00 12.8 96.4 1017.3 1.2 W 6.1 WNW 0.0 0.1
03:05 12.8 96.0 1017.2 0.1 NW 3.4 NW 0.0 0.1
03:10 12.9 95.7 1017.2 0.8 S 3.4 S 0.0 0.1
03:15 13.0 95.5 1017.1 0.2 S 3.4 S 0.0 0.1
03:20 13.0 95.2 1017.1 0.4 WSW 3.4 WSW 0.0 0.1
03:25 13.0 95.1 1017.1 0.9 W 3.4 W 0.0 0.1
03:30 13.0 95.2 1017.1 3.1 W 6.1 W 0.0 0.1
03:35 13.0 95.3 1017.1 2.6 W 6.1 WNW 0.0 0.1
03:40 13.0 95.2 1017.1 1.3 NW 6.1 WNW 0.0 0.1
03:45 12.9 95.5 1017.1 0.1 WNW 3.4 WNW 0.0 0.1
03:50 12.8 95.4 1017.1 1.5 NNW 6.1 NNW 0.0 0.1
03:55 12.8 94.8 1017.1 0.3 N 3.4 N 0.0 0.1
04:00 12.7 94.2 1017.1 4.0 N 8.8 NNW 0.0 0.3
04:05 12.5 94.0 1017.1 3.9 NNW 6.1 NNE 0.0 0.7
04:10 12.4 93.2 1017.0 4.7 NNW 6.1 NNW 0.0 1.5
04:15 12.5 92.9 1017.0 2.5 NNW 6.1 NNW 0.0 2.5
04:20 12.4 92.9 1017.0 0.7 NNW 6.1 NNW 0.0 3.7
04:25 12.2 93.3 1017.0 1.7 NNW 6.1 NNW 0.0 5.2
04:30 12.1 93.5 1017.0 2.4 NNW 6.1 NNW 0.0 7.0
04:35 12.2 93.4 1017.0 3.8 NW 8.8 NW 0.0 10.3
04:40 12.2 93.0 1017.0 1.9 NNW 6.1 NW 0.0 15.1
04:45 12.3 93.2 1017.0 2.2 NNW 6.1 NNW 0.0 23.3
04:50 12.3 92.8 1017.0 0.2 NNW 3.4 NNW 0.0 28.8
04:55 12.3 93.2 1017.0 0.0 NNW 3.4 NNW 0.0 33.0
05:00 12.3 93.7 1017.0 0.2 WNW 3.4 WNW 0.0 40.3
05:05 12.2 94.1 1017.0 0.4 WNW 3.4 WNW 0.0 55.7
05:10 12.3 94.1 1017.1 3.2 W 6.1 W 0.0 64.1
05:15 12.4 93.9 1017.1 4.4 WNW 8.8 W 0.0 81.2
05:20 12.5 93.6 1017.1 5.0 W 8.8 W 0.0 58.7
05:25 12.6 93.4 1017.1 5.4 W 8.8 W 0.0 70.1
05:30 12.5 93.5 1017.1 2.8 WNW 6.1 W 0.0 104.4
Màxima 13.1 98.1 1017.5 5.4 W 11.5 WNW 0.0 104.4
Mínima 11.6 92.8 1017.0
Total 0.0